Time;durP1;ratioP1;P1;durP2;ratioP2;P2;SDS_P1;SDS_P2;PMS_P1;PMS_P2;Temp;Humidity;BMP_temperature;BMP_pressure;BME280_temperature;BME280_humidity;BME280_pressure;Samples;Min_cycle;Max_cycle;Signal;HPM_P1;HPM_P2
2023/10/04 00:01:36;;;;;;;;;4.80;4.80;;;;;-143.00;100.00;60422.56;5077737;27;46255;-67
2023/10/04 00:04:02;;;;;;;;;2.00;1.00;;;;;-143.00;100.00;60422.56;5097023;27;45487;-67
2023/10/04 00:06:27;;;;;;;;;6.00;6.00;;;;;-143.00;100.00;60422.56;5097385;27;45353;-67
2023/10/04 00:08:52;;;;;;;;;4.50;3.50;;;;;-143.00;100.00;60422.56;5096885;27;45524;-68
2023/10/04 00:11:18;;;;;;;;;5.25;4.00;;;;;-143.00;100.00;60422.56;5097125;27;46466;-67
2023/10/04 00:13:46;;;;;;;;;6.00;4.00;;;;;-143.00;100.00;60422.56;5097105;27;45388;-66
2023/10/04 00:16:12;;;;;;;;;2.00;2.00;;;;;-143.00;100.00;60422.56;5097506;27;45352;-67
2023/10/04 00:18:38;;;;;;;;;5.40;5.40;;;;;-143.00;100.00;60422.56;5078853;27;46025;-66
2023/10/04 00:21:06;;;;;;;;;4.00;4.00;;;;;-143.00;100.00;60422.56;5095962;27;45655;-67
2023/10/04 00:23:32;;;;;;;;;5.40;4.20;;;;;-143.00;100.00;60422.56;5096656;27;45459;-66
2023/10/04 00:25:57;;;;;;;;;6.00;4.25;;;;;-143.00;100.00;60422.56;5097327;27;45486;-66
2023/10/04 00:28:22;;;;;;;;;5.00;3.75;;;;;-143.00;100.00;60422.56;5096553;27;45376;-66
2023/10/04 00:30:48;;;;;;;;;5.50;3.50;;;;;-143.00;100.00;60422.56;5096596;27;45436;-65
2023/10/04 00:33:13;;;;;;;;;6.50;5.25;;;;;-143.00;100.00;60422.56;5096968;27;45466;-66
2023/10/04 00:35:40;;;;;;;;;4.25;4.00;;;;;-143.00;100.00;60422.56;5096829;27;45448;-67
2023/10/04 00:38:08;;;;;;;;;3.40;3.00;;;;;-143.00;100.00;60422.56;5096525;27;45356;-66
2023/10/04 00:40:33;;;;;;;;;4.20;4.20;;;;;-143.00;100.00;60422.56;5095948;27;46177;-67
2023/10/04 00:43:03;;;;;;;;;3.75;3.75;;;;;-143.00;100.00;60422.56;5096324;27;45380;-66
2023/10/04 00:45:29;;;;;;;;;4.00;4.00;;;;;-143.00;100.00;60422.56;5096767;27;45369;-67
2023/10/04 00:47:58;;;;;;;;;4.40;4.40;;;;;-143.00;100.00;60422.56;5078312;27;45533;-66
2023/10/04 00:50:26;;;;;;;;;5.40;4.20;;;;;-143.00;100.00;60422.56;5096435;27;45609;-65
2023/10/04 00:52:54;;;;;;;;;2.80;2.80;;;;;-143.00;100.00;60422.56;5078118;27;45413;-66
2023/10/04 00:55:21;;;;;;;;;2.40;2.40;;;;;-143.00;100.00;60422.56;5096437;27;45417;-66
2023/10/04 00:57:54;;;;;;;;;3.80;3.80;;;;;-143.00;100.00;60422.56;5096338;27;45451;-66
2023/10/04 01:00:20;;;;;;;;;5.40;3.40;;;;;-143.00;100.00;60422.56;5096522;27;45425;-67
2023/10/04 01:02:46;;;;;;;;;4.80;4.00;;;;;-143.00;100.00;60422.56;5096632;27;45372;-66
2023/10/04 01:05:15;;;;;;;;;4.20;3.00;;;;;-143.00;100.00;60422.56;5100075;27;45452;-66
2023/10/04 01:07:42;;;;;;;;;2.00;2.00;;;;;-143.00;100.00;60422.56;5116993;27;45376;-67
2023/10/04 01:10:14;;;;;;;;;3.80;3.80;;;;;-143.00;100.00;60422.56;5097653;27;48127;-67
2023/10/04 01:12:41;;;;;;;;;5.40;4.20;;;;;-143.00;100.00;60422.56;5097991;27;45388;-66
2023/10/04 01:15:25;;;;;;;;;5.00;3.60;;;;;-143.00;100.00;60422.56;5116865;27;45410;-65
2023/10/04 01:17:55;;;;;;;;;2.80;2.40;;;;;-143.00;100.00;60422.56;5116661;27;45638;-66
2023/10/04 01:20:23;;;;;;;;;4.00;4.00;;;;;-143.00;100.00;60422.56;5116655;27;45675;-65
2023/10/04 01:22:50;;;;;;;;;4.20;3.40;;;;;-143.00;100.00;60422.56;5116787;27;45375;-67
2023/10/04 01:25:16;;;;;;;;;3.20;3.20;;;;;-143.00;100.00;60422.56;5097675;27;45432;-67
2023/10/04 01:27:44;;;;;;;;;5.25;4.00;;;;;-143.00;100.00;60422.56;5116659;27;45380;-65
2023/10/04 01:30:11;;;;;;;;;3.40;2.80;;;;;-143.00;100.00;60422.56;5116525;27;46387;-67
2023/10/04 01:32:37;;;;;;;;;1.60;1.60;;;;;-143.00;100.00;60422.56;5116178;27;45309;-65
2023/10/04 01:35:05;;;;;;;;;4.20;4.20;;;;;-143.00;100.00;60422.56;5116770;27;45306;-67
2023/10/04 01:37:32;;;;;;;;;4.80;4.00;;;;;-143.00;100.00;60422.56;5116592;27;45400;-66
2023/10/04 01:39:58;;;;;;;;;3.80;3.80;;;;;-143.00;100.00;60422.56;5115960;27;46610;-66
2023/10/04 01:42:25;;;;;;;;;4.80;4.80;;;;;-143.00;100.00;60422.56;5098157;27;45508;-65
2023/10/04 01:44:51;;;;;;;;;3.80;3.00;;;;;-143.00;100.00;60422.56;5116833;27;45326;-65
2023/10/04 01:47:19;;;;;;;;;3.00;3.00;;;;;-143.00;100.00;60422.56;5116475;27;45316;-66
2023/10/04 01:49:45;;;;;;;;;4.40;4.00;;;;;-143.00;100.00;60422.56;5116247;27;45491;-65
2023/10/04 01:52:10;;;;;;;;;1.25;1.00;;;;;-143.00;100.00;60422.56;5115849;27;45454;-67
2023/10/04 01:54:36;;;;;;;;;4.00;4.00;;;;;-143.00;100.00;60422.56;5115837;27;45347;-67
2023/10/04 01:57:04;;;;;;;;;3.00;1.75;;;;;-143.00;100.00;60422.56;5116240;27;45499;-67
2023/10/04 01:59:31;;;;;;;;;3.80;3.80;;;;;-143.00;100.00;60422.56;5116196;27;45371;-65
2023/10/04 02:01:57;;;;;;;;;3.00;2.60;;;;;-143.00;100.00;60422.56;5116068;27;45446;-65
2023/10/04 02:04:23;;;;;;;;;5.00;4.60;;;;;-143.00;100.00;60422.56;5116377;27;45416;-65
2023/10/04 02:06:49;;;;;;;;;5.00;4.20;;;;;-143.00;100.00;60422.56;5098574;27;45306;-66
2023/10/04 02:09:16;;;;;;;;;7.25;4.00;;;;;-143.00;100.00;60422.56;5094978;27;46317;-67
2023/10/04 02:11:43;;;;;;;;;5.40;3.80;;;;;-143.00;100.00;60422.56;5095083;27;45407;-67
2023/10/04 02:14:08;;;;;;;;;4.00;3.00;;;;;-143.00;100.00;60422.56;5095246;27;45314;-65
2023/10/04 02:16:34;;;;;;;;;2.75;2.75;;;;;-143.00;100.00;60422.56;5076883;27;45284;-67
2023/10/04 02:19:01;;;;;;;;;5.00;2.60;;;;;-143.00;100.00;60422.56;5095392;27;45540;-65
2023/10/04 02:21:26;;;;;;;;;3.00;3.00;;;;;-143.00;100.00;60422.56;5095148;27;45360;-67
2023/10/04 02:23:53;;;;;;;;;2.00;2.00;;;;;-143.00;100.00;60422.56;5094702;27;45769;-66
2023/10/04 02:26:22;;;;;;;;;3.20;2.20;;;;;-143.00;100.00;60422.56;5094806;27;45364;-67
2023/10/04 02:28:55;;;;;;;;;3.00;2.80;;;;;-143.00;100.00;60422.56;5075557;27;45784;-66
2023/10/04 02:31:21;;;;;;;;;3.00;2.00;;;;;-143.00;100.00;60422.56;5094804;27;45661;-67
2023/10/04 02:33:47;;;;;;;;;3.00;2.00;;;;;-143.00;100.00;60422.56;5095454;27;45448;-66
2023/10/04 02:36:12;;;;;;;;;5.75;3.75;;;;;-143.00;100.00;60422.56;5095106;27;45337;-65
2023/10/04 02:38:38;;;;;;;;;4.00;4.00;;;;;-143.00;100.00;60422.56;5094775;27;45956;-66
2023/10/04 02:41:06;;;;;;;;;5.00;3.25;;;;;-143.00;100.00;60422.56;5095183;27;45446;-66
2023/10/04 02:43:36;;;;;;;;;4.40;2.20;;;;;-143.00;100.00;60422.56;5095413;27;45405;-66
2023/10/04 02:46:03;;;;;;;;;4.20;4.00;;;;;-143.00;100.00;60422.56;5079412;27;45463;-66
2023/10/04 02:48:31;;;;;;;;;4.00;2.80;;;;;-143.00;100.00;60422.56;5097839;27;45416;-65
2023/10/04 02:50:57;;;;;;;;;3.60;2.80;;;;;-143.00;100.00;60422.56;5097738;27;45588;-66
2023/10/04 02:53:24;;;;;;;;;3.50;2.75;;;;;-143.00;100.00;60422.56;5098085;27;45278;-66
2023/10/04 02:55:54;;;;;;;;;3.40;3.40;;;;;-143.00;100.00;60422.56;5097638;27;45537;-66
2023/10/04 02:58:23;;;;;;;;;2.20;2.20;;;;;-143.00;100.00;60422.56;5097289;27;45647;-67
2023/10/04 03:00:50;;;;;;;;;3.60;3.60;;;;;-143.00;100.00;60422.56;5098023;27;45378;-65
2023/10/04 03:03:24;;;;;;;;;3.80;2.40;;;;;-143.00;100.00;60422.56;5098635;27;45523;-65
2023/10/04 03:05:51;;;;;;;;;3.80;2.80;;;;;-143.00;100.00;60422.56;5107136;27;45502;-67
2023/10/04 03:08:19;;;;;;;;;2.80;1.40;;;;;-143.00;100.00;60422.56;5100109;27;45535;-67
2023/10/04 03:10:49;;;;;;;;;3.00;3.00;;;;;-143.00;100.00;60422.56;5118587;27;45348;-66
2023/10/04 03:13:19;;;;;;;;;3.60;3.60;;;;;-143.00;100.00;60422.56;5118910;27;45459;-65
2023/10/04 03:15:50;;;;;;;;;4.40;4.40;;;;;-143.00;100.00;60422.56;5099945;27;45282;-68
2023/10/04 03:18:17;;;;;;;;;2.40;2.40;;;;;-143.00;100.00;60422.56;5118583;27;46424;-65
2023/10/04 03:23:23;;;;;;;;;4.40;3.00;;;;;-143.00;100.00;60422.56;5117850;27;45409;-66
2023/10/04 03:25:51;;;;;;;;;2.00;2.00;;;;;-143.00;100.00;60422.56;5118785;27;45379;-65
2023/10/04 03:28:16;;;;;;;;;2.00;2.00;;;;;-143.00;100.00;60422.56;5118458;27;46254;-66
2023/10/04 03:30:43;;;;;;;;;3.25;3.25;;;;;-143.00;100.00;60422.56;5099815;27;45350;-65
2023/10/04 03:33:09;;;;;;;;;3.40;2.20;;;;;-143.00;100.00;60422.56;5118411;27;45451;-64
2023/10/04 03:35:37;;;;;;;;;2.75;2.75;;;;;-143.00;100.00;60422.56;5118378;27;45388;-66
2023/10/04 03:38:07;;;;;;;;;4.00;4.00;;;;;-143.00;100.00;60422.56;5117995;27;47139;-65
2023/10/04 03:40:36;;;;;;;;;3.00;3.00;;;;;-143.00;100.00;60422.56;5118128;27;45448;-65
2023/10/04 03:43:05;;;;;;;;;4.20;4.20;;;;;-143.00;100.00;60422.56;5118585;27;45377;-67
2023/10/04 03:45:32;;;;;;;;;3.60;2.00;;;;;-143.00;100.00;60422.56;5118361;27;45506;-67
2023/10/04 03:47:58;;;;;;;;;4.80;4.80;;;;;-143.00;100.00;60422.56;5118063;27;45644;-67
2023/10/04 03:50:24;;;;;;;;;3.75;3.25;;;;;-143.00;100.00;60422.56;5117801;27;45482;-66
2023/10/04 03:52:51;;;;;;;;;5.00;4.00;;;;;-143.00;100.00;60422.56;5117656;27;45495;-67
2023/10/04 03:55:17;;;;;;;;;5.40;5.40;;;;;-143.00;100.00;60422.56;5116027;27;45319;-65
2023/10/04 03:57:43;;;;;;;;;5.60;5.60;;;;;-143.00;100.00;60422.56;5099054;27;46935;-66
2023/10/04 04:00:17;;;;;;;;;4.60;4.00;;;;;-143.00;100.00;60422.56;5117802;27;45384;-66
2023/10/04 04:02:43;;;;;;;;;5.00;4.00;;;;;-143.00;100.00;60422.56;5118054;27;45324;-66
2023/10/04 04:05:09;;;;;;;;;5.00;4.20;;;;;-143.00;100.00;60422.56;5117951;27;45380;-67
2023/10/04 04:07:35;;;;;;;;;5.80;4.00;;;;;-143.00;100.00;60422.56;5099332;27;46642;-67
2023/10/04 04:10:07;;;;;;;;;4.00;4.00;;;;;-143.00;100.00;60422.56;5117422;27;45396;-66
2023/10/04 04:12:34;;;;;;;;;6.80;5.00;;;;;-143.00;100.00;60422.56;5117974;27;45530;-67
2023/10/04 04:15:01;;;;;;;;;4.80;4.80;;;;;-143.00;100.00;60422.56;5117409;27;45518;-67
2023/10/04 04:17:27;;;;;;;;;4.20;4.20;;;;;-143.00;100.00;60422.56;5117482;27;46545;-67
2023/10/04 04:19:52;;;;;;;;;4.50;3.00;;;;;-143.00;100.00;60422.56;5117461;27;45403;-67
2023/10/04 04:22:23;;;;;;;;;6.25;4.50;;;;;-143.00;100.00;60422.56;5117523;27;45447;-67
2023/10/04 04:24:52;;;;;;;;;5.60;4.40;;;;;-143.00;100.00;60422.56;5098216;27;45483;-67
2023/10/04 04:27:22;;;;;;;;;7.00;5.40;;;;;-143.00;100.00;60422.56;5117286;27;45658;-67
2023/10/04 04:29:52;;;;;;;;;4.60;4.60;;;;;-143.00;100.00;60422.56;5117633;27;45404;-68
2023/10/04 04:32:26;;;;;;;;;5.00;4.40;;;;;-143.00;100.00;60422.56;5098902;27;45415;-67
2023/10/04 04:34:55;;;;;;;;;5.00;5.00;;;;;-143.00;100.00;60422.56;5097701;27;45722;-66
2023/10/04 04:37:27;;;;;;;;;3.20;3.20;;;;;-143.00;100.00;60422.56;5098313;27;47315;-67
2023/10/04 04:39:52;;;;;;;;;6.00;5.00;;;;;-143.00;100.00;60422.56;5097800;27;45389;-67
2023/10/04 04:42:22;;;;;;;;;5.00;5.00;;;;;-143.00;100.00;60422.56;5116748;27;45612;-65
2023/10/04 04:44:48;;;;;;;;;4.80;4.80;;;;;-143.00;100.00;60422.56;5116824;27;45306;-65
2023/10/04 04:47:15;;;;;;;;;2.00;2.00;;;;;-143.00;100.00;60422.56;5116476;27;46596;-68
2023/10/04 04:49:41;;;;;;;;;3.20;2.00;;;;;-143.00;100.00;60422.56;5116792;27;45442;-67
2023/10/04 04:52:09;;;;;;;;;7.00;7.00;;;;;-143.00;100.00;60422.56;5116714;27;45381;-67
2023/10/04 04:54:34;;;;;;;;;6.60;5.00;;;;;-143.00;100.00;60422.56;5116668;27;45419;-67
2023/10/04 04:57:00;;;;;;;;;6.50;6.50;;;;;-143.00;100.00;60422.56;5116829;27;45571;-67
2023/10/04 04:59:25;;;;;;;;;5.00;5.00;;;;;-143.00;100.00;60422.56;5116609;27;45398;-68
2023/10/04 05:01:55;;;;;;;;;5.25;5.25;;;;;-143.00;100.00;60422.56;5116306;27;45790;-67
2023/10/04 05:04:22;;;;;;;;;5.40;4.20;;;;;-143.00;100.00;60422.56;5116342;27;46249;-68
2023/10/04 05:06:48;;;;;;;;;5.20;4.60;;;;;-143.00;100.00;60422.56;5080735;27;45423;-67
2023/10/04 05:09:13;;;;;;;;;9.50;5.00;;;;;-143.00;100.00;60422.56;5077101;27;45433;-67
2023/10/04 05:11:38;;;;;;;;;6.25;6.00;;;;;-143.00;100.00;60422.56;5095969;27;45456;-68
2023/10/04 05:14:08;;;;;;;;;6.75;5.00;;;;;-143.00;100.00;60422.56;5095792;27;45553;-67
2023/10/04 05:16:34;;;;;;;;;7.20;6.00;;;;;-143.00;100.00;60422.56;5095621;27;45539;-66
2023/10/04 05:18:59;;;;;;;;;7.50;5.00;;;;;-143.00;100.00;60422.56;5095797;27;45378;-67
2023/10/04 05:21:25;;;;;;;;;4.00;4.00;;;;;-143.00;100.00;60422.56;5096268;27;45809;-67
2023/10/04 05:23:55;;;;;;;;;6.50;6.50;;;;;-143.00;100.00;60422.56;5095772;27;45482;-67
2023/10/04 05:26:20;;;;;;;;;6.00;6.00;;;;;-143.00;100.00;60422.56;5077369;27;46561;-68
2023/10/04 05:28:46;;;;;;;;;7.50;5.25;;;;;-143.00;100.00;60422.56;5095771;27;45368;-67
2023/10/04 05:31:11;;;;;;;;;4.00;4.00;;;;;-143.00;100.00;60422.56;5077036;27;45371;-67
2023/10/04 05:33:37;;;;;;;;;5.25;5.25;;;;;-143.00;100.00;60422.56;5095697;27;45374;-67
2023/10/04 05:36:03;;;;;;;;;4.75;4.75;;;;;-143.00;100.00;60422.56;5095298;27;46506;-66
2023/10/04 05:38:28;;;;;;;;;4.80;4.40;;;;;-143.00;100.00;60422.56;5094757;27;45352;-67
2023/10/04 05:40:54;;;;;;;;;7.00;6.75;;;;;-143.00;100.00;60422.56;5095236;27;45383;-67
2023/10/04 05:43:19;;;;;;;;;8.75;6.25;;;;;-143.00;100.00;60422.56;5095088;27;45329;-66
2023/10/04 05:45:47;;;;;;;;;6.25;6.25;;;;;-143.00;100.00;60422.56;5095088;27;46050;-69
2023/10/04 05:48:14;;;;;;;;;5.60;5.60;;;;;-143.00;100.00;60422.56;5094811;27;45427;-69
2023/10/04 05:50:40;;;;;;;;;10.00;6.00;;;;;-143.00;100.00;60422.56;5095017;27;45346;-66
2023/10/04 05:53:07;;;;;;;;;5.75;5.75;;;;;-143.00;100.00;60422.56;5094667;27;45283;-69
2023/10/04 05:55:34;;;;;;;;;3.60;2.00;;;;;-143.00;100.00;60422.56;5094840;27;46358;-66
2023/10/04 05:58:00;;;;;;;;;8.40;7.60;;;;;-143.00;100.00;60422.56;5094872;27;45380;-69
2023/10/04 06:00:29;;;;;;;;;5.00;5.00;;;;;-143.00;100.00;60422.56;5095127;27;45445;-67
2023/10/04 06:03:00;;;;;;;;;5.50;4.75;;;;;-143.00;100.00;60422.56;5076372;27;45496;-66
2023/10/04 06:05:27;;;;;;;;;5.80;5.00;;;;;-143.00;100.00;60422.56;5100095;27;45470;-68
2023/10/04 06:07:55;;;;;;;;;4.20;4.20;;;;;-143.00;100.00;60422.56;5115289;27;45434;-69
2023/10/04 06:10:21;;;;;;;;;4.80;4.80;;;;;-143.00;100.00;60422.56;5097252;27;45468;-68
2023/10/04 06:12:47;;;;;;;;;6.75;6.50;;;;;-143.00;100.00;60422.56;5115448;27;45389;-68
2023/10/04 06:15:17;;;;;;;;;6.20;5.00;;;;;-143.00;100.00;60422.56;5114741;27;47282;-68
2023/10/04 06:17:46;;;;;;;;;5.20;4.20;;;;;-143.00;100.00;60422.56;5114748;27;45468;-69
2023/10/04 06:20:28;;;;;;;;;6.60;5.60;;;;;-143.00;100.00;60422.56;5114233;27;45379;-67
2023/10/04 06:22:59;;;;;;;;;5.75;4.75;;;;;-143.00;100.00;60422.56;5113595;27;45536;-67
2023/10/04 06:25:26;;;;;;;;;5.00;5.00;;;;;-143.00;100.00;60422.56;5115270;27;47407;-68
2023/10/04 06:27:53;;;;;;;;;5.00;5.00;;;;;-143.00;100.00;60422.56;5115038;27;45445;-69
2023/10/04 06:30:23;;;;;;;;;6.40;5.20;;;;;-143.00;100.00;60422.56;5114752;27;45444;-68
2023/10/04 06:32:53;;;;;;;;;11.75;7.75;;;;;-143.00;100.00;60422.56;5114271;27;45355;-67
2023/10/04 06:35:23;;;;;;;;;5.00;4.60;;;;;-143.00;100.00;60422.56;5115097;27;45507;-68
2023/10/04 06:38:07;;;;;;;;;5.00;5.00;;;;;-143.00;100.00;60422.56;5114989;27;45356;-68
2023/10/04 06:40:33;;;;;;;;;7.60;6.80;;;;;-143.00;100.00;60422.56;5115300;27;45392;-68
2023/10/04 06:43:01;;;;;;;;;5.00;5.00;;;;;-143.00;100.00;60422.56;5114879;27;45358;-68
2023/10/04 06:45:27;;;;;;;;;6.00;4.60;;;;;-143.00;100.00;60422.56;5114327;27;46643;-68
2023/10/04 06:47:57;;;;;;;;;5.00;5.00;;;;;-143.00;100.00;60422.56;5114962;27;45488;-68
2023/10/04 06:50:38;;;;;;;;;10.20;7.00;;;;;-143.00;100.00;60422.56;5114713;27;45415;-68
2023/10/04 06:53:04;;;;;;;;;9.40;6.80;;;;;-143.00;100.00;60422.56;5114860;27;45436;-68
2023/10/04 06:55:31;;;;;;;;;9.20;7.00;;;;;-143.00;100.00;60422.56;5114815;27;46151;-68
2023/10/04 06:57:57;;;;;;;;;9.00;6.20;;;;;-143.00;100.00;60422.56;5114784;27;45490;-68
2023/10/04 07:00:30;;;;;;;;;8.00;7.00;;;;;-143.00;100.00;60422.56;5114907;27;45437;-68
2023/10/04 07:02:59;;;;;;;;;6.75;6.00;;;;;-143.00;100.00;60422.56;5114551;27;45478;-67
2023/10/04 07:05:44;;;;;;;;;5.80;4.40;;;;;-143.00;100.00;60422.56;5091302;27;45449;-69
2023/10/04 07:08:12;;;;;;;;;7.00;5.40;;;;;-143.00;100.00;60422.56;5093478;27;45419;-68
2023/10/04 07:10:38;;;;;;;;;6.00;5.00;;;;;-143.00;100.00;60422.56;5094384;27;45384;-68
2023/10/04 07:13:06;;;;;;;;;6.25;4.75;;;;;-143.00;100.00;60422.56;5093997;27;45529;-68
2023/10/04 07:15:35;;;;;;;;;6.00;5.80;;;;;-143.00;100.00;60422.56;5093778;27;47210;-68
2023/10/04 07:18:06;;;;;;;;;5.20;4.40;;;;;-143.00;100.00;60422.56;5094325;27;45474;-66
2023/10/04 07:20:32;;;;;;;;;4.00;4.00;;;;;-143.00;100.00;60422.56;5076621;27;45406;-66
2023/10/04 07:23:03;;;;;;;;;7.40;6.80;;;;;-143.00;100.00;60422.56;5094007;27;45383;-66
2023/10/04 07:25:30;;;;;;;;;7.00;5.20;;;;;-143.00;100.00;60422.56;5094101;27;46236;-67
2023/10/04 07:27:59;;;;;;;;;8.00;6.80;;;;;-143.00;100.00;60422.56;5075892;27;46100;-68
2023/10/04 07:30:25;;;;;;;;;4.60;4.60;;;;;-143.00;100.00;60422.56;5096767;27;45389;-68
2023/10/04 07:32:51;;;;;;;;;4.50;4.50;;;;;-143.00;100.00;60422.56;5097377;27;45498;-67
2023/10/04 07:35:21;;;;;;;;;4.20;4.20;;;;;-143.00;100.00;60422.56;5097231;27;46469;-67
2023/10/04 07:37:47;;;;;;;;;4.00;4.00;;;;;-143.00;100.00;60422.56;5097492;27;45444;-67
2023/10/04 07:40:14;;;;;;;;;6.80;5.00;;;;;-143.00;100.00;60422.56;5097282;27;45363;-68
2023/10/04 07:42:45;;;;;;;;;6.60;3.20;;;;;-143.00;100.00;60422.56;5097530;27;45388;-68
2023/10/04 07:45:11;;;;;;;;;4.60;4.60;;;;;-143.00;100.00;60422.56;5096960;27;45451;-68
2023/10/04 07:47:37;;;;;;;;;3.20;3.20;;;;;-143.00;100.00;60422.56;5097403;27;45500;-68
2023/10/04 07:50:05;;;;;;;;;3.60;3.60;;;;;-143.00;100.00;60422.56;5097557;27;45459;-68
2023/10/04 07:52:31;;;;;;;;;4.00;4.00;;;;;-143.00;100.00;60422.56;5097189;27;45450;-67
2023/10/04 07:54:59;;;;;;;;;6.40;5.60;;;;;-143.00;100.00;60422.56;5097066;27;46197;-68
2023/10/04 07:57:28;;;;;;;;;5.20;4.40;;;;;-143.00;100.00;60422.56;5097171;27;45483;-68
2023/10/04 07:59:54;;;;;;;;;6.20;5.00;;;;;-143.00;100.00;60422.56;5097135;27;45356;-68
2023/10/04 08:02:20;;;;;;;;;5.75;5.00;;;;;-143.00;100.00;60422.56;5096876;27;45342;-68
2023/10/04 08:04:45;;;;;;;;;3.25;3.25;;;;;-143.00;100.00;60422.56;5096927;27;46271;-67
2023/10/04 08:07:14;;;;;;;;;6.00;4.50;;;;;-143.00;100.00;60422.56;5117245;27;45452;-68
2023/10/04 08:09:40;;;;;;;;;4.40;2.80;;;;;-143.00;100.00;60422.56;5117294;27;45438;-69
2023/10/04 08:12:07;;;;;;;;;6.00;4.00;;;;;-143.00;100.00;60422.56;5117846;27;45444;-68
2023/10/04 08:14:33;;;;;;;;;5.00;4.80;;;;;-143.00;100.00;60422.56;5117290;27;45455;-67
2023/10/04 08:16:59;;;;;;;;;6.80;6.60;;;;;-143.00;100.00;60422.56;5117208;27;45417;-69
2023/10/04 08:19:26;;;;;;;;;4.25;4.00;;;;;-143.00;100.00;60422.56;5117551;27;45382;-67
2023/10/04 08:21:51;;;;;;;;;5.00;5.00;;;;;-143.00;100.00;60422.56;5116596;27;45450;-67
2023/10/04 08:24:16;;;;;;;;;4.00;4.00;;;;;-143.00;100.00;60422.56;5117043;27;45820;-69
2023/10/04 08:26:42;;;;;;;;;5.50;5.50;;;;;-143.00;100.00;60422.56;5117038;27;45426;-68
2023/10/04 08:29:07;;;;;;;;;6.25;4.00;;;;;-143.00;100.00;60422.56;5117224;27;45380;-68
2023/10/04 08:31:33;;;;;;;;;5.00;5.00;;;;;-143.00;100.00;60422.56;5117309;27;45454;-68
2023/10/04 08:33:59;;;;;;;;;4.75;4.75;;;;;-143.00;100.00;60422.56;5098521;27;45596;-68
2023/10/04 08:36:24;;;;;;;;;5.75;5.00;;;;;-143.00;100.00;60422.56;5117314;27;45399;-68
2023/10/04 08:38:49;;;;;;;;;6.50;6.25;;;;;-143.00;100.00;60422.56;5117345;27;45617;-68
2023/10/04 08:41:16;;;;;;;;;5.50;5.00;;;;;-143.00;100.00;60422.56;5116403;27;45636;-68
2023/10/04 08:43:44;;;;;;;;;4.40;2.00;;;;;-143.00;100.00;60422.56;5097478;27;48113;-67
2023/10/04 08:46:10;;;;;;;;;8.80;7.00;;;;;-143.00;100.00;60422.56;5116675;27;45378;-69
2023/10/04 08:48:36;;;;;;;;;8.60;6.80;;;;;-143.00;100.00;60422.56;5117239;27;45535;-67
2023/10/04 08:51:23;;;;;;;;;7.50;6.00;;;;;-143.00;100.00;60422.56;5094991;27;45404;-68
2023/10/04 08:53:59;;;;;;;;;4.60;4.60;;;;;-143.00;100.00;60422.56;5095833;27;46744;-69
2023/10/04 08:56:28;;;;;;;;;5.20;4.20;;;;;-143.00;100.00;60422.56;5096020;27;45411;-67
2023/10/04 08:58:58;;;;;;;;;4.40;4.20;;;;;-143.00;100.00;60422.56;5096637;27;45367;-68
2023/10/04 09:01:24;;;;;;;;;6.00;6.00;;;;;-143.00;100.00;60422.56;5096125;27;45463;-68
2023/10/04 09:03:52;;;;;;;;;5.00;4.80;;;;;-143.00;100.00;60422.56;5096715;27;46973;-68
2023/10/04 09:06:22;;;;;;;;;6.00;6.00;;;;;-143.00;100.00;60422.56;5083444;27;45313;-66
2023/10/04 09:08:49;;;;;;;;;5.80;5.80;;;;;-143.00;100.00;60422.56;5075720;27;45407;-68
2023/10/04 09:11:17;;;;;;;;;4.25;3.75;;;;;-143.00;100.00;60422.56;5074474;28;45547;-67
2023/10/04 09:13:47;;;;;;;;;5.00;4.20;;;;;-143.00;100.00;60422.56;5075550;27;45678;-68
2023/10/04 09:16:22;;;;;;;;;6.40;6.00;;;;;-143.00;100.00;60422.56;5074107;28;45392;-69
2023/10/04 09:19:14;;;;;;;;;4.80;4.60;;;;;-143.00;100.00;60422.56;5075371;28;45506;-70
2023/10/04 09:21:41;;;;;;;;;8.00;7.00;;;;;-143.00;100.00;60422.56;5073486;27;45552;-68
2023/10/04 09:24:14;;;;;;;;;7.20;5.00;;;;;-143.00;100.00;60422.56;5090389;27;46223;-66
2023/10/04 09:26:49;;;;;;;;;4.40;4.00;;;;;-143.00;100.00;60422.56;5075456;28;45391;-69
2023/10/04 09:29:15;;;;;;;;;6.00;5.00;;;;;-143.00;100.00;60422.56;5073555;28;45361;-68
2023/10/04 09:31:50;;;;;;;;;7.00;7.00;;;;;-143.00;100.00;60422.56;5075214;27;45364;-68
2023/10/04 09:34:16;;;;;;;;;5.40;4.20;;;;;-143.00;100.00;60422.56;5074958;27;45310;-68
2023/10/04 09:36:42;;;;;;;;;8.20;7.00;;;;;-143.00;100.00;60422.56;5073505;28;45373;-68
2023/10/04 09:39:13;;;;;;;;;8.40;6.80;;;;;-143.00;100.00;60422.56;5074841;28;45501;-68
2023/10/04 09:41:43;;;;;;;;;6.00;6.00;;;;;-143.00;100.00;60422.56;5074847;27;45312;-69
2023/10/04 09:44:35;;;;;;;;;6.80;6.40;;;;;-143.00;100.00;60422.56;5074320;28;46262;-69
2023/10/04 09:47:03;;;;;;;;;5.00;3.80;;;;;-143.00;100.00;60422.56;5075082;27;45439;-69
2023/10/04 09:49:33;;;;;;;;;5.60;4.60;;;;;-143.00;100.00;60422.56;5074583;28;45366;-68
2023/10/04 09:52:00;;;;;;;;;5.20;5.20;;;;;-143.00;100.00;60422.56;5088417;27;45383;-68
2023/10/04 09:54:30;;;;;;;;;5.80;5.80;;;;;-143.00;100.00;60422.56;5095000;27;45507;-68
2023/10/04 09:56:56;;;;;;;;;3.80;2.80;;;;;-143.00;100.00;60422.56;5095209;27;45406;-69
2023/10/04 09:59:23;;;;;;;;;4.80;4.80;;;;;-143.00;100.00;60422.56;5095143;27;45394;-68
2023/10/04 10:01:54;;;;;;;;;4.20;4.20;;;;;-143.00;100.00;60422.56;5076430;27;45414;-68
2023/10/04 10:04:25;;;;;;;;;6.60;4.60;;;;;-143.00;100.00;60422.56;5094292;27;45411;-68
2023/10/04 10:07:06;;;;;;;;;3.80;3.80;;;;;-143.00;100.00;60422.56;5111917;27;45408;-68
2023/10/04 10:09:35;;;;;;;;;5.80;5.80;;;;;-143.00;100.00;60422.56;5115216;27;45250;-68
2023/10/04 10:12:02;;;;;;;;;5.00;4.80;;;;;-143.00;100.00;60422.56;5115363;27;45406;-68
2023/10/04 10:14:30;;;;;;;;;5.00;5.00;;;;;-143.00;100.00;60422.56;5114446;27;46144;-68
2023/10/04 10:16:56;;;;;;;;;5.80;5.80;;;;;-143.00;100.00;60422.56;5115162;27;45305;-68
2023/10/04 10:19:29;;;;;;;;;5.20;4.20;;;;;-143.00;100.00;60422.56;5096547;27;45538;-68
2023/10/04 10:22:15;;;;;;;;;7.60;5.20;;;;;-143.00;100.00;60422.56;5096163;27;45482;-68
2023/10/04 10:24:48;;;;;;;;;5.40;5.00;;;;;-143.00;100.00;60422.56;5115080;27;45379;-67
2023/10/04 10:27:15;;;;;;;;;5.20;4.40;;;;;-143.00;100.00;60422.56;5115256;27;45461;-68
2023/10/04 10:29:42;;;;;;;;;5.00;5.00;;;;;-143.00;100.00;60422.56;5115327;27;45379;-68
2023/10/04 10:32:17;;;;;;;;;3.40;3.40;;;;;-143.00;100.00;60422.56;5114967;27;46079;-65
2023/10/04 10:34:43;;;;;;;;;4.20;4.20;;;;;-143.00;100.00;60422.56;5114919;27;45561;-69
2023/10/04 10:37:19;;;;;;;;;3.40;3.00;;;;;-143.00;100.00;60422.56;5115306;27;45409;-67
2023/10/04 10:39:46;;;;;;;;;3.00;2.00;;;;;-143.00;100.00;60422.56;5096202;27;45358;-67
2023/10/04 10:42:14;;;;;;;;;5.60;4.40;;;;;-143.00;100.00;60422.56;5114898;27;45375;-68
2023/10/04 10:44:40;;;;;;;;;6.40;4.80;;;;;-143.00;100.00;60422.56;5114915;27;46061;-66
2023/10/04 10:47:14;;;;;;;;;5.00;5.00;;;;;-143.00;100.00;60422.56;5114852;27;45398;-67
2023/10/04 10:49:44;;;;;;;;;6.40;4.40;;;;;-143.00;100.00;60422.56;5114690;27;45453;-67
2023/10/04 10:52:21;;;;;;;;;1.00;1.00;;;;;-143.00;100.00;60422.56;5114994;27;45394;-68
2023/10/04 10:54:47;;;;;;;;;4.00;4.00;;;;;-143.00;100.00;60422.56;5114632;27;46507;-67
2023/10/04 10:57:13;;;;;;;;;6.00;5.00;;;;;-143.00;100.00;60422.56;5114784;27;45466;-68
2023/10/04 10:59:40;;;;;;;;;7.80;5.00;;;;;-143.00;100.00;60422.56;5114924;27;45408;-69
2023/10/04 11:02:06;;;;;;;;;2.60;2.60;;;;;-143.00;100.00;60422.56;5115005;27;45554;-66
2023/10/04 11:04:31;;;;;;;;;4.00;2.25;;;;;-143.00;100.00;60422.56;5115963;27;45323;-67
2023/10/04 11:06:57;;;;;;;;;3.75;3.75;;;;;-143.00;100.00;60422.56;5100260;27;45344;-68
2023/10/04 11:09:22;;;;;;;;;2.00;2.00;;;;;-143.00;100.00;60422.56;5097473;27;45605;-71
2023/10/04 11:11:49;;;;;;;;;5.00;5.00;;;;;-143.00;100.00;60422.56;5097938;27;45362;-66
2023/10/04 11:14:16;;;;;;;;;6.00;5.40;;;;;-143.00;100.00;60422.56;5097795;27;46585;-66
2023/10/04 11:16:42;;;;;;;;;5.20;4.80;;;;;-143.00;100.00;60422.56;5097522;27;45543;-66